createdAt,value
2018-10-12T00:00:12.825Z,14.06
2018-10-12T00:01:12.817Z,14.04
2018-10-12T00:02:12.808Z,14.09
2018-10-12T00:03:12.798Z,14.04
2018-10-12T00:04:12.788Z,14.15
2018-10-12T00:05:12.778Z,14.04
2018-10-12T00:06:12.763Z,14.07
2018-10-12T00:07:12.749Z,14.09
2018-10-12T00:08:12.746Z,14.20
2018-10-12T00:09:12.729Z,14.24
2018-10-12T00:10:12.720Z,14.20
2018-10-12T00:11:12.709Z,14.24
2018-10-12T00:12:12.697Z,14.22
2018-10-12T00:13:12.689Z,14.25
2018-10-12T00:14:12.673Z,14.24
2018-10-12T00:15:12.657Z,14.24
2018-10-12T00:16:12.653Z,14.18
2018-10-12T00:17:12.643Z,14.24
2018-10-12T00:18:12.630Z,14.20
2018-10-12T00:19:12.638Z,14.22
2018-10-12T00:20:12.610Z,14.20
2018-10-12T00:21:12.612Z,14.25
2018-10-12T00:22:12.586Z,14.24
2018-10-12T00:23:12.576Z,14.32
2018-10-12T00:24:12.567Z,14.24
2018-10-12T00:25:12.556Z,14.20
2018-10-12T00:26:12.545Z,14.21
2018-10-12T00:27:12.535Z,14.20
2018-10-12T00:28:12.521Z,14.09
2018-10-12T00:29:12.514Z,14.04
2018-10-12T00:30:12.510Z,14.10
2018-10-12T00:31:12.494Z,14.09
2018-10-12T00:32:12.472Z,14.03
2018-10-12T00:33:12.465Z,14.04
2018-10-12T00:34:12.466Z,14.06
2018-10-12T00:35:12.440Z,14.09
2018-10-12T00:36:12.434Z,14.06
2018-10-12T00:37:12.423Z,14.07
2018-10-12T00:38:12.405Z,14.07
2018-10-12T00:39:12.399Z,14.12
2018-10-12T00:40:12.395Z,14.06
2018-10-12T00:41:12.377Z,14.14
2018-10-12T00:42:12.365Z,14.07
2018-10-12T00:43:12.349Z,14.02
2018-10-12T00:44:12.343Z,14.04
2018-10-12T00:45:12.331Z,14.04
2018-10-12T00:46:12.315Z,14.04
2018-10-12T00:47:12.306Z,14.03
2018-10-12T00:48:12.296Z,14.04
2018-10-12T00:49:12.290Z,14.03
2018-10-12T00:50:12.276Z,14.06
2018-10-12T00:51:12.272Z,14.07
2018-10-12T00:52:12.255Z,14.04
2018-10-12T00:53:12.241Z,14.07
2018-10-12T00:54:12.237Z,14.10
2018-10-12T00:55:12.224Z,14.04
2018-10-12T00:56:12.209Z,14.02
2018-10-12T00:57:12.200Z,14.04
2018-10-12T00:58:12.184Z,14.10
2018-10-12T00:59:12.175Z,14.10
2018-10-12T01:00:12.171Z,14.03
2018-10-12T01:01:12.155Z,14.09
2018-10-12T01:02:12.136Z,14.03
2018-10-12T01:03:12.135Z,14.02
2018-10-12T01:04:12.116Z,14.00
2018-10-12T01:05:12.105Z,14.10
2018-10-12T01:06:12.095Z,14.15
2018-10-12T01:07:12.090Z,14.06
2018-10-12T01:08:12.075Z,14.10
2018-10-12T01:09:12.079Z,14.04
2018-10-12T01:10:12.048Z,13.99
2018-10-12T01:11:12.044Z,13.96
2018-10-12T01:12:12.081Z,14.00
2018-10-12T01:13:12.021Z,13.92
2018-10-12T01:14:12.016Z,13.95
2018-10-12T01:15:11.996Z,13.91
2018-10-12T01:16:11.982Z,13.91
2018-10-12T01:17:11.974Z,13.88
2018-10-12T01:18:11.963Z,13.92
2018-10-12T01:19:11.948Z,13.85
2018-10-12T01:20:11.947Z,13.92
2018-10-12T01:21:11.930Z,13.91
2018-10-12T01:22:11.923Z,13.88
2018-10-12T01:23:11.907Z,13.89
2018-10-12T01:24:11.894Z,13.89
2018-10-12T01:25:11.881Z,13.88
2018-10-12T01:26:11.871Z,13.85
2018-10-12T01:27:11.861Z,13.88
2018-10-12T01:28:11.851Z,13.88
2018-10-12T01:29:11.845Z,13.89
2018-10-12T01:30:11.832Z,13.85
2018-10-12T01:31:11.814Z,13.84
2018-10-12T01:32:11.812Z,13.89
2018-10-12T01:33:11.790Z,13.84
2018-10-12T01:34:11.781Z,13.78
2018-10-12T01:35:11.770Z,13.81
2018-10-12T01:36:11.758Z,13.82
2018-10-12T01:37:11.746Z,13.87
2018-10-12T01:38:11.745Z,13.81
2018-10-12T01:39:11.730Z,13.84
2018-10-12T01:40:11.715Z,13.81
2018-10-12T01:41:11.706Z,13.82
2018-10-12T01:42:11.695Z,13.81
2018-10-12T01:43:11.681Z,13.77
2018-10-12T01:44:11.675Z,13.64
2018-10-12T01:45:11.667Z,13.64
2018-10-12T01:46:11.649Z,13.60
2018-10-12T01:47:11.636Z,13.70
2018-10-12T01:48:11.622Z,13.59
2018-10-12T01:49:11.613Z,13.66
2018-10-12T01:50:11.607Z,13.69
2018-10-12T01:51:11.595Z,13.59
2018-10-12T01:52:11.584Z,13.60
2018-10-12T01:53:11.577Z,13.54
2018-10-12T01:54:11.564Z,13.54
2018-10-12T01:55:11.548Z,13.54
2018-10-12T01:56:11.544Z,13.51
2018-10-12T01:57:11.518Z,13.63
2018-10-12T01:58:11.515Z,13.52
2018-10-12T01:59:11.505Z,13.52
2018-10-12T02:00:11.491Z,13.59
2018-10-12T02:01:11.479Z,13.52
2018-10-12T02:02:11.468Z,13.52
2018-10-12T02:03:11.459Z,13.52
2018-10-12T02:04:11.446Z,13.59
2018-10-12T02:05:11.428Z,13.59
2018-10-12T02:06:11.427Z,13.59
2018-10-12T02:07:11.407Z,13.62
2018-10-12T02:08:11.404Z,13.60
2018-10-12T02:09:11.390Z,13.64
2018-10-12T02:10:11.514Z,13.66
2018-10-12T02:11:11.370Z,13.66
2018-10-12T02:12:11.353Z,13.77
2018-10-12T02:13:11.345Z,13.69
2018-10-12T02:14:11.342Z,13.69
2018-10-12T02:15:11.325Z,13.70
2018-10-12T02:16:11.313Z,13.84
2018-10-12T02:17:11.307Z,13.81
2018-10-12T02:18:11.294Z,13.79
2018-10-12T02:19:11.279Z,13.78
2018-10-12T02:20:11.266Z,13.77
2018-10-12T02:21:11.261Z,13.78
2018-10-12T02:22:11.247Z,13.66
2018-10-12T02:23:11.229Z,13.71
2018-10-12T02:24:11.222Z,13.66
2018-10-12T02:25:11.204Z,13.67
2018-10-12T02:26:11.200Z,13.60
2018-10-12T02:27:11.189Z,13.71
2018-10-12T02:28:11.184Z,13.64
2018-10-12T02:29:11.165Z,13.60
2018-10-12T02:30:11.150Z,13.63
2018-10-12T02:31:11.141Z,13.66
2018-10-12T02:32:11.130Z,13.69
2018-10-12T02:33:11.120Z,13.67
2018-10-12T02:34:11.107Z,13.63
2018-10-12T02:35:11.098Z,13.78
2018-10-12T02:36:11.087Z,13.59
2018-10-12T02:37:11.073Z,13.73
2018-10-12T02:38:11.067Z,13.67
2018-10-12T02:39:11.053Z,13.62
2018-10-12T02:40:11.041Z,13.66
2018-10-12T02:41:11.027Z,13.63
2018-10-12T02:42:11.036Z,13.60
2018-10-12T02:43:11.008Z,13.59
2018-10-12T02:44:11.002Z,13.70
2018-10-12T02:45:10.987Z,13.64
2018-10-12T02:46:10.970Z,13.63
2018-10-12T02:47:10.959Z,13.57
2018-10-12T02:48:10.956Z,13.60
2018-10-12T02:49:10.939Z,13.52
2018-10-12T02:50:10.929Z,13.54
2018-10-12T02:51:10.917Z,13.55
2018-10-12T02:52:10.900Z,13.54
2018-10-12T02:53:10.898Z,13.51
2018-10-12T02:54:10.887Z,13.48
2018-10-12T02:55:10.871Z,13.49
2018-10-12T02:56:10.857Z,13.52
2018-10-12T02:57:10.841Z,13.46
2018-10-12T02:58:10.839Z,13.55
2018-10-12T02:59:10.826Z,13.41
2018-10-12T03:00:10.811Z,13.51
2018-10-12T03:01:10.807Z,13.52
2018-10-12T03:02:10.808Z,13.51
2018-10-12T03:03:10.776Z,13.48
2018-10-12T03:04:10.766Z,13.52
2018-10-12T03:05:10.761Z,13.52
2018-10-12T03:06:10.743Z,13.48
2018-10-12T03:07:10.740Z,13.54
2018-10-12T03:08:10.722Z,13.51
2018-10-12T03:09:10.713Z,13.46
2018-10-12T03:10:10.709Z,13.41
2018-10-12T03:11:10.687Z,13.44
2018-10-12T03:12:10.675Z,13.42
2018-10-12T03:13:10.662Z,13.42
2018-10-12T03:14:10.658Z,13.46
2018-10-12T03:15:10.643Z,13.44
2018-10-12T03:16:10.631Z,13.38
2018-10-12T03:17:10.622Z,13.29
2018-10-12T03:18:10.614Z,13.42
2018-10-12T03:19:10.600Z,13.39
2018-10-12T03:20:10.582Z,13.25
2018-10-12T03:21:10.574Z,13.29
2018-10-12T03:22:10.572Z,13.25
2018-10-12T03:23:10.555Z,13.25
2018-10-12T03:24:10.551Z,13.20
2018-10-12T03:25:10.538Z,13.19
2018-10-12T03:26:10.517Z,13.23
2018-10-12T03:27:10.513Z,13.20
2018-10-12T03:28:10.493Z,13.14
2018-10-12T03:29:10.495Z,13.23
2018-10-12T03:30:10.483Z,13.11
2018-10-12T03:31:10.466Z,13.14
2018-10-12T03:32:10.453Z,13.15
2018-10-12T03:33:10.438Z,13.15
2018-10-12T03:34:10.424Z,13.11
2018-10-12T03:35:10.418Z,13.08
2018-10-12T03:36:10.404Z,13.10
2018-10-12T03:37:10.466Z,13.10
2018-10-12T03:38:10.379Z,13.10
2018-10-12T03:39:10.386Z,13.10
2018-10-12T03:40:10.357Z,13.07
2018-10-12T03:41:10.347Z,13.01
2018-10-12T03:42:10.334Z,13.07
2018-10-12T03:43:10.318Z,13.03
2018-10-12T03:44:10.310Z,13.00
2018-10-12T03:45:10.302Z,13.05
2018-10-12T03:46:10.291Z,13.03
2018-10-12T03:47:10.282Z,13.03
2018-10-12T03:48:10.271Z,13.10
2018-10-12T03:49:10.254Z,13.00
2018-10-12T03:50:10.245Z,13.00
2018-10-12T03:51:10.231Z,13.00
2018-10-12T03:52:10.222Z,13.01
2018-10-12T03:53:10.208Z,12.90
2018-10-12T03:54:10.190Z,12.86
2018-10-12T03:55:10.182Z,12.96
2018-10-12T03:56:10.190Z,12.89
2018-10-12T03:57:10.163Z,13.01
2018-10-12T03:58:10.150Z,12.90
2018-10-12T03:59:10.140Z,12.90
2018-10-12T04:00:10.128Z,13.01
2018-10-12T04:01:10.118Z,13.05
2018-10-12T04:02:10.104Z,13.07
2018-10-12T04:03:10.089Z,13.05
2018-10-12T04:04:10.084Z,13.05
2018-10-12T04:05:10.073Z,13.07
2018-10-12T04:06:10.055Z,13.00
2018-10-12T04:07:10.049Z,13.01
2018-10-12T04:08:10.039Z,13.01
2018-10-12T04:09:10.036Z,13.00
2018-10-12T04:10:10.013Z,12.96
2018-10-12T04:11:10.000Z,13.00
2018-10-12T04:12:09.988Z,13.05
2018-10-12T04:13:09.981Z,13.04
2018-10-12T04:14:09.966Z,12.97
2018-10-12T04:15:09.956Z,13.08
2018-10-12T04:16:09.946Z,13.04
2018-10-12T04:17:09.934Z,13.11
2018-10-12T04:18:09.924Z,13.08
2018-10-12T04:19:09.907Z,13.04
2018-10-12T04:20:09.905Z,13.08
2018-10-12T04:21:09.890Z,13.04
2018-10-12T04:22:09.879Z,13.01
2018-10-12T04:23:09.861Z,13.04
2018-10-12T04:24:09.861Z,13.03
2018-10-12T04:25:09.844Z,13.08
2018-10-12T04:26:09.832Z,13.08
2018-10-12T04:27:09.823Z,12.97
2018-10-12T04:28:09.806Z,13.08
2018-10-12T04:29:09.800Z,13.10
2018-10-12T04:30:09.786Z,13.23
2018-10-12T04:31:09.768Z,13.14
2018-10-12T04:32:09.762Z,13.19
2018-10-12T04:33:09.753Z,13.22
2018-10-12T04:34:09.738Z,13.15
2018-10-12T04:35:09.721Z,13.14
2018-10-12T04:36:09.711Z,13.15
2018-10-12T04:37:09.701Z,13.15
2018-10-12T04:38:09.691Z,13.20
2018-10-12T04:39:09.677Z,13.20
2018-10-12T04:40:09.667Z,13.28
2018-10-12T04:41:09.660Z,13.20
2018-10-12T04:42:09.648Z,13.29
2018-10-12T04:43:09.629Z,13.23
2018-10-12T04:44:09.617Z,13.30
2018-10-12T04:45:09.603Z,13.28
2018-10-12T04:46:09.597Z,13.23
2018-10-12T04:47:09.586Z,13.11
2018-10-12T04:48:09.576Z,13.28
2018-10-12T04:49:09.564Z,13.29
2018-10-12T04:50:09.552Z,13.20
2018-10-12T04:51:09.532Z,13.29
2018-10-12T04:52:09.530Z,13.25
2018-10-12T04:53:09.514Z,13.28
2018-10-12T04:54:09.505Z,13.29
2018-10-12T04:55:09.491Z,13.29
2018-10-12T04:56:09.487Z,13.33
2018-10-12T04:57:09.467Z,13.26
2018-10-12T04:58:09.467Z,13.28
2018-10-12T04:59:09.442Z,13.28
2018-10-12T05:00:09.437Z,13.26
2018-10-12T05:01:09.503Z,13.28
2018-10-12T05:02:09.412Z,13.26
2018-10-12T05:03:09.400Z,13.25
2018-10-12T05:04:09.402Z,13.26
2018-10-12T05:05:09.380Z,13.20
2018-10-12T05:06:09.368Z,13.25
2018-10-12T05:07:09.360Z,13.25
2018-10-12T05:08:09.337Z,13.23
2018-10-12T05:09:09.329Z,13.22
2018-10-12T05:10:09.321Z,13.29
2018-10-12T05:11:09.305Z,13.25
2018-10-12T05:12:09.298Z,13.25
2018-10-12T05:13:09.283Z,13.39
2018-10-12T05:14:09.272Z,13.30
2018-10-12T05:15:09.268Z,13.44
2018-10-12T05:16:09.252Z,13.39
2018-10-12T05:17:09.237Z,13.44
2018-10-12T05:18:09.227Z,13.36
2018-10-12T05:19:09.215Z,13.42
2018-10-12T05:20:09.201Z,13.41
2018-10-12T05:21:09.192Z,13.42
2018-10-12T05:22:09.266Z,13.29
2018-10-12T05:23:09.168Z,13.36
2018-10-12T05:24:09.158Z,13.44
2018-10-12T05:25:09.145Z,13.39
2018-10-12T05:26:09.130Z,13.25
2018-10-12T05:27:09.156Z,13.26
2018-10-12T05:28:09.115Z,13.29
2018-10-12T05:29:09.098Z,13.29
2018-10-12T05:30:09.107Z,13.29
2018-10-12T05:31:09.074Z,13.23
2018-10-12T05:32:09.063Z,13.22
2018-10-12T05:33:09.055Z,13.11
2018-10-12T05:34:09.039Z,13.11
2018-10-12T05:35:09.034Z,13.20
2018-10-12T05:36:09.057Z,13.12
2018-10-12T05:37:09.006Z,13.10
2018-10-12T05:38:08.991Z,13.07
2018-10-12T05:39:08.982Z,12.97
2018-10-12T05:40:08.971Z,13.05
2018-10-12T05:41:08.964Z,13.08
2018-10-12T05:42:08.950Z,13.00
2018-10-12T05:43:09.001Z,13.01
2018-10-12T05:44:08.921Z,13.01
2018-10-12T05:45:08.926Z,12.93
2018-10-12T05:46:08.907Z,12.97
2018-10-12T05:47:08.894Z,12.96
2018-10-12T05:48:08.880Z,12.87
2018-10-12T05:49:08.868Z,12.89
2018-10-12T05:50:08.858Z,12.96
2018-10-12T05:51:08.847Z,12.82
2018-10-12T05:52:08.833Z,12.85
2018-10-12T05:53:08.819Z,12.78
2018-10-12T05:54:08.813Z,12.83
2018-10-12T05:55:08.805Z,12.85
2018-10-12T05:56:08.795Z,12.89
2018-10-12T05:57:08.777Z,12.79
2018-10-12T05:58:08.764Z,12.85
2018-10-12T05:59:08.753Z,12.85
2018-10-12T06:00:08.750Z,12.83
2018-10-12T06:01:08.784Z,12.87
2018-10-12T06:02:08.721Z,12.87
2018-10-12T06:03:08.704Z,12.86
2018-10-12T06:04:08.698Z,12.83
2018-10-12T06:05:08.680Z,12.89
2018-10-12T06:06:08.670Z,12.89
2018-10-12T06:07:08.664Z,12.79
2018-10-12T06:08:08.649Z,12.82
2018-10-12T06:09:08.637Z,12.86
2018-10-12T06:10:08.745Z,12.87
2018-10-12T06:11:08.615Z,12.86
2018-10-12T06:12:08.609Z,12.83
2018-10-12T06:13:08.589Z,12.86
2018-10-12T06:14:08.575Z,12.93
2018-10-12T06:15:08.567Z,12.86
2018-10-12T06:16:08.568Z,12.82
2018-10-12T06:17:08.543Z,12.92
2018-10-12T06:18:08.532Z,12.85
2018-10-12T06:19:08.521Z,12.95
2018-10-12T06:20:08.505Z,12.89
2018-10-12T06:21:08.492Z,12.86
2018-10-12T06:22:08.491Z,12.97
2018-10-12T06:23:08.473Z,12.89
2018-10-12T06:24:08.464Z,12.86
2018-10-12T06:25:08.452Z,12.90
2018-10-12T06:26:08.435Z,12.90
2018-10-12T06:27:08.417Z,12.95
2018-10-12T06:28:08.413Z,12.90
2018-10-12T06:29:08.401Z,12.95
2018-10-12T06:30:08.393Z,12.85
2018-10-12T06:31:08.379Z,12.92
2018-10-12T06:32:08.367Z,13.00
2018-10-12T06:33:08.351Z,13.04
2018-10-12T06:34:08.341Z,13.07
2018-10-12T06:35:08.330Z,13.05
2018-10-12T06:36:08.320Z,13.07
2018-10-12T06:37:08.313Z,13.05
2018-10-12T06:38:08.302Z,13.12
2018-10-12T06:39:08.284Z,13.10
2018-10-12T06:40:08.273Z,13.20
2018-10-12T06:41:08.284Z,13.20
2018-10-12T06:42:08.257Z,13.11
2018-10-12T06:43:08.237Z,13.19
2018-10-12T06:44:08.228Z,13.11
2018-10-12T06:45:08.213Z,13.23
2018-10-12T06:46:08.201Z,13.20
2018-10-12T06:47:08.189Z,13.25
2018-10-12T06:48:08.188Z,13.11
2018-10-12T06:49:08.168Z,13.17
2018-10-12T06:50:08.158Z,13.19
2018-10-12T06:51:08.163Z,13.15
2018-10-12T06:52:08.133Z,13.26
2018-10-12T06:53:08.122Z,13.26
2018-10-12T06:54:08.117Z,13.26
2018-10-12T06:55:08.101Z,13.26
2018-10-12T06:56:08.091Z,13.23
2018-10-12T06:57:08.077Z,13.20
2018-10-12T06:58:08.068Z,13.26
2018-10-12T06:59:08.051Z,13.51
2018-10-12T07:00:08.040Z,13.49
2018-10-12T07:01:08.034Z,13.62
2018-10-12T07:02:08.033Z,13.69
2018-10-12T07:03:08.005Z,13.59
2018-10-12T07:04:07.994Z,13.59
2018-10-12T07:05:07.984Z,13.64
2018-10-12T07:06:07.971Z,13.69
2018-10-12T07:07:07.960Z,13.77
2018-10-12T07:08:07.946Z,13.78
2018-10-12T07:09:07.930Z,13.79
2018-10-12T07:10:07.925Z,13.82
2018-10-12T07:11:07.912Z,13.92
2018-10-12T07:12:07.901Z,13.95
2018-10-12T07:13:07.886Z,14.04
2018-10-12T07:14:07.880Z,14.07
2018-10-12T07:15:07.864Z,14.17
2018-10-12T07:16:07.857Z,14.22
2018-10-12T07:17:07.850Z,14.20
2018-10-12T07:18:07.840Z,14.36
2018-10-12T07:19:07.833Z,14.36
2018-10-12T07:20:07.844Z,14.40
2018-10-12T07:21:07.800Z,14.42
2018-10-12T07:22:07.785Z,14.54
2018-10-12T07:23:07.775Z,14.61
2018-10-12T07:24:07.766Z,14.58
2018-10-12T07:25:07.754Z,14.73
2018-10-12T07:26:07.746Z,14.81
2018-10-12T07:27:07.731Z,14.88
2018-10-12T07:28:07.722Z,15.01
2018-10-12T07:29:07.710Z,15.03
2018-10-12T07:30:07.700Z,15.03
2018-10-12T07:31:10.528Z,15.16
2018-10-12T07:32:07.680Z,15.28
2018-10-12T07:33:07.668Z,15.31
2018-10-12T07:34:07.657Z,15.39
2018-10-12T07:35:07.668Z,15.50
2018-10-12T07:36:07.631Z,15.56
2018-10-12T07:37:07.670Z,15.57
2018-10-12T07:38:07.616Z,15.62
2018-10-12T07:39:07.600Z,15.78
2018-10-12T07:40:07.595Z,15.78
2018-10-12T07:41:07.583Z,15.80
2018-10-12T07:42:07.570Z,15.84
2018-10-12T07:43:07.570Z,15.90
2018-10-12T07:44:07.550Z,16.00
2018-10-12T07:45:07.544Z,16.01
2018-10-12T07:46:07.535Z,16.12
2018-10-12T07:47:07.527Z,16.14
2018-10-12T07:48:07.558Z,16.28
2018-10-12T07:49:07.499Z,16.31
2018-10-12T07:50:07.499Z,16.41
2018-10-12T07:51:07.477Z,16.48
2018-10-12T07:52:07.469Z,16.58
2018-10-12T07:53:07.467Z,16.61
2018-10-12T07:54:07.441Z,16.63
2018-10-12T07:55:07.432Z,16.83
2018-10-12T07:56:07.428Z,16.86
2018-10-12T07:57:07.414Z,16.97
2018-10-12T07:58:07.412Z,16.93
2018-10-12T07:59:07.398Z,16.94
2018-10-12T08:00:07.438Z,17.15
2018-10-12T08:01:07.372Z,17.21
2018-10-12T08:02:07.370Z,17.23
2018-10-12T08:03:07.353Z,17.23
2018-10-12T08:04:07.345Z,17.28
2018-10-12T08:05:07.334Z,17.36
2018-10-12T08:06:07.347Z,17.36
2018-10-12T08:07:07.318Z,17.43
2018-10-12T08:08:07.313Z,17.56
2018-10-12T08:09:07.295Z,17.62
2018-10-12T08:10:07.290Z,17.68
2018-10-12T08:11:07.272Z,17.77
2018-10-12T08:12:07.269Z,17.82
2018-10-12T08:13:07.255Z,17.81
2018-10-12T08:14:07.255Z,17.90
2018-10-12T08:15:07.241Z,17.92
2018-10-12T08:16:07.225Z,18.03
2018-10-12T08:17:07.222Z,18.07
2018-10-12T08:18:07.208Z,18.14
2018-10-12T08:19:07.205Z,18.20
2018-10-12T08:20:07.196Z,18.21
2018-10-12T08:21:07.177Z,18.35
2018-10-12T08:22:07.173Z,18.41
2018-10-12T08:23:07.161Z,18.41
2018-10-12T08:24:07.163Z,18.55
2018-10-12T08:25:07.148Z,18.50
2018-10-12T08:26:07.135Z,18.57
2018-10-12T08:27:07.202Z,18.67
2018-10-12T08:28:07.115Z,18.73
2018-10-12T08:29:07.105Z,18.75
2018-10-12T08:30:07.102Z,18.82
2018-10-12T08:31:07.098Z,18.90
2018-10-12T08:32:07.081Z,18.87
2018-10-12T08:33:07.074Z,18.85
2018-10-12T08:34:07.072Z,18.92
2018-10-12T08:35:07.054Z,18.87
2018-10-12T08:36:07.052Z,18.85
2018-10-12T08:37:07.033Z,18.95
2018-10-12T08:38:07.028Z,18.87
2018-10-12T08:39:07.033Z,18.98
2018-10-12T08:40:07.016Z,19.04
2018-10-12T08:41:07.001Z,19.13
2018-10-12T08:42:06.991Z,19.14
2018-10-12T08:43:06.982Z,19.19
2018-10-12T08:44:06.977Z,19.06
2018-10-12T08:45:06.974Z,19.18
2018-10-12T08:46:06.958Z,19.10
2018-10-12T08:47:06.954Z,19.10
2018-10-12T08:48:06.955Z,19.14
2018-10-12T08:49:06.934Z,19.18
2018-10-12T08:50:06.933Z,19.21
2018-10-12T08:51:06.914Z,19.22
2018-10-12T08:52:06.905Z,19.28
2018-10-12T08:53:06.892Z,19.23
2018-10-12T08:54:06.893Z,19.37
2018-10-12T08:55:06.880Z,19.44
2018-10-12T08:56:06.874Z,19.43
2018-10-12T08:57:06.864Z,19.51
2018-10-12T08:58:06.854Z,19.65
2018-10-12T08:59:06.847Z,19.69
2018-10-12T09:00:06.833Z,19.77
2018-10-12T09:01:06.829Z,19.71
2018-10-12T09:02:06.820Z,19.80
2018-10-12T09:03:06.853Z,19.78
2018-10-12T09:04:06.805Z,19.88
2018-10-12T09:05:06.795Z,19.92
2018-10-12T09:06:06.786Z,20.01
2018-10-12T09:07:06.776Z,20.16
2018-10-12T09:08:06.769Z,20.16
2018-10-12T09:09:06.758Z,20.18
2018-10-12T09:10:06.756Z,20.29
2018-10-12T09:11:06.748Z,20.36
2018-10-12T09:12:06.740Z,20.36
2018-10-12T09:13:06.732Z,20.39
2018-10-12T09:14:06.723Z,20.48
2018-10-12T09:15:06.709Z,20.58
2018-10-12T09:16:06.715Z,20.55
2018-10-12T09:17:06.699Z,20.55
2018-10-12T09:18:06.691Z,20.62
2018-10-12T09:19:06.681Z,20.66
2018-10-12T09:20:06.730Z,20.66
2018-10-12T09:21:06.679Z,20.73
2018-10-12T09:22:06.660Z,20.66
2018-10-12T09:23:06.651Z,20.62
2018-10-12T09:24:06.643Z,20.64
2018-10-12T09:25:06.638Z,20.57
2018-10-12T09:26:06.635Z,20.57
2018-10-12T09:27:06.629Z,20.59
2018-10-12T09:28:06.610Z,20.64
2018-10-12T09:29:06.610Z,20.55
2018-10-12T09:30:06.620Z,20.41
2018-10-12T09:31:06.590Z,20.48
2018-10-12T09:32:06.589Z,20.58
2018-10-12T09:33:06.574Z,20.55
2018-10-12T09:34:06.561Z,20.67
2018-10-12T09:35:06.557Z,20.73
2018-10-12T09:36:06.547Z,20.77
2018-10-12T09:37:06.593Z,20.82
2018-10-12T09:38:06.537Z,20.94
2018-10-12T09:39:06.528Z,20.98
2018-10-12T09:40:06.523Z,20.85
2018-10-12T09:41:06.502Z,20.95
2018-10-12T09:42:06.502Z,20.91
2018-10-12T09:43:06.500Z,20.97
2018-10-12T09:44:06.492Z,20.98
2018-10-12T09:45:06.487Z,21.04
2018-10-12T09:46:06.463Z,20.98
2018-10-12T09:47:06.469Z,20.98
2018-10-12T09:48:06.460Z,21.07
2018-10-12T09:49:06.447Z,21.10
2018-10-12T09:50:06.443Z,21.13
2018-10-12T09:51:06.435Z,21.16
2018-10-12T09:52:06.427Z,21.22
2018-10-12T09:53:06.423Z,21.22
2018-10-12T09:54:06.412Z,21.29
2018-10-12T09:55:06.408Z,21.16
2018-10-12T09:56:06.397Z,21.12
2018-10-12T09:57:06.390Z,21.14
2018-10-12T09:58:06.381Z,21.12
2018-10-12T09:59:06.376Z,21.12
2018-10-12T10:00:06.360Z,21.16
2018-10-12T10:01:06.362Z,21.13
2018-10-12T10:02:06.409Z,21.19
2018-10-12T10:03:06.349Z,21.16
2018-10-12T10:04:06.337Z,21.27
2018-10-12T10:05:06.332Z,21.28
2018-10-12T10:06:06.321Z,21.29
2018-10-12T10:07:06.311Z,21.34
2018-10-12T10:08:06.413Z,21.44
2018-10-12T10:09:06.386Z,21.42
2018-10-12T10:10:06.299Z,21.28
2018-10-12T10:11:06.290Z,21.35
2018-10-12T10:12:06.283Z,21.42
2018-10-12T10:13:06.281Z,21.59
2018-10-12T10:14:06.277Z,21.53
2018-10-12T10:15:06.255Z,21.54
2018-10-12T10:16:06.247Z,21.58
2018-10-12T10:17:06.245Z,21.65
2018-10-12T10:18:06.235Z,21.80
2018-10-12T10:19:06.252Z,21.86
2018-10-12T10:20:06.224Z,21.88
2018-10-12T10:21:06.212Z,21.92
2018-10-12T10:22:06.212Z,21.83
2018-10-12T10:23:06.202Z,21.94
2018-10-12T10:24:06.196Z,21.86
2018-10-12T10:25:06.323Z,21.88
2018-10-12T10:26:06.182Z,22.00
2018-10-12T10:27:06.169Z,22.00
2018-10-12T10:28:06.171Z,22.05
2018-10-12T10:29:06.203Z,21.98
2018-10-12T10:30:06.147Z,22.03
2018-10-12T10:31:06.142Z,22.09
2018-10-12T10:32:06.154Z,22.14
2018-10-12T10:33:06.136Z,22.05
2018-10-12T10:34:06.125Z,22.09
2018-10-12T10:35:06.115Z,22.12
2018-10-12T10:36:06.107Z,22.14
2018-10-12T10:37:06.103Z,22.21
2018-10-12T10:38:06.095Z,22.22
2018-10-12T10:39:06.177Z,22.17
2018-10-12T10:40:06.089Z,21.99
2018-10-12T10:41:06.073Z,22.10
2018-10-12T10:42:06.067Z,22.15
2018-10-12T10:43:06.069Z,22.22
2018-10-12T10:44:06.058Z,22.27
2018-10-12T10:45:06.053Z,22.35
2018-10-12T10:46:06.060Z,22.30
2018-10-12T10:47:06.035Z,22.36
2018-10-12T10:48:06.023Z,22.28
2018-10-12T10:49:06.023Z,22.30
2018-10-12T10:50:06.016Z,22.35
2018-10-12T10:51:06.017Z,22.40
2018-10-12T10:52:06.004Z,22.42
2018-10-12T10:53:06.003Z,22.40
2018-10-12T10:54:05.986Z,22.37
2018-10-12T10:55:05.979Z,22.35
2018-10-12T10:56:05.981Z,22.22
2018-10-12T10:57:05.966Z,22.18
2018-10-12T10:58:05.958Z,22.21
2018-10-12T10:59:05.957Z,22.22
2018-10-12T11:00:05.956Z,22.17
2018-10-12T11:01:05.954Z,22.12
2018-10-12T11:02:05.933Z,22.14
2018-10-12T11:03:05.923Z,22.12
2018-10-12T11:04:05.924Z,22.24
2018-10-12T11:05:05.912Z,22.39
2018-10-12T11:06:05.924Z,22.36
2018-10-12T11:07:05.900Z,22.40
2018-10-12T11:08:05.904Z,22.39
2018-10-12T11:09:05.886Z,22.46
2018-10-12T11:10:05.884Z,22.61
2018-10-12T11:11:05.910Z,22.70
2018-10-12T11:12:05.890Z,22.70
2018-10-12T11:13:05.922Z,22.82
2018-10-12T11:14:05.858Z,22.82
2018-10-12T11:15:05.849Z,22.95
2018-10-12T11:16:05.838Z,22.92
2018-10-12T11:17:05.833Z,22.95
2018-10-12T11:18:05.837Z,22.83
2018-10-12T11:19:05.817Z,22.94
2018-10-12T11:20:05.817Z,23.05
2018-10-12T11:21:05.808Z,23.13
2018-10-12T11:22:05.801Z,23.19
2018-10-12T11:23:05.794Z,23.13
2018-10-12T11:24:05.793Z,23.19
2018-10-12T11:25:05.784Z,23.28
2018-10-12T11:26:05.779Z,23.31
2018-10-12T11:27:05.771Z,23.40
2018-10-12T11:28:05.771Z,23.39
2018-10-12T11:29:05.759Z,23.40
2018-10-12T11:30:05.758Z,23.48
2018-10-12T11:31:05.746Z,23.51
2018-10-12T11:32:05.744Z,23.60
2018-10-12T11:33:05.796Z,23.73
2018-10-12T11:34:05.734Z,23.84
2018-10-12T11:35:05.723Z,24.02
2018-10-12T11:36:05.717Z,23.95
2018-10-12T11:37:05.709Z,23.85
2018-10-12T11:38:05.704Z,23.95
2018-10-12T11:39:05.695Z,23.94
2018-10-12T11:40:05.692Z,23.88
2018-10-12T11:41:05.685Z,24.03
2018-10-12T11:42:05.681Z,23.93
2018-10-12T11:43:05.672Z,23.94
2018-10-12T11:44:05.663Z,23.95
2018-10-12T11:45:05.751Z,24.16
2018-10-12T11:46:05.657Z,24.20
2018-10-12T11:47:05.652Z,24.34
2018-10-12T11:48:05.646Z,24.30
2018-10-12T11:49:05.638Z,24.39
2018-10-12T11:50:05.640Z,24.42
2018-10-12T11:51:05.623Z,24.65
2018-10-12T11:52:05.626Z,24.84
2018-10-12T11:53:05.614Z,24.85
2018-10-12T11:54:05.605Z,24.91
2018-10-12T11:55:05.609Z,24.93
2018-10-12T11:56:05.594Z,24.99
2018-10-12T11:57:05.587Z,25.02
2018-10-12T11:58:05.590Z,25.02
2018-10-12T11:59:05.576Z,25.17
2018-10-12T12:00:05.575Z,25.10
2018-10-12T12:01:05.636Z,25.20
2018-10-12T12:02:05.568Z,25.28
2018-10-12T12:03:05.565Z,25.14
2018-10-12T12:04:05.554Z,25.05
2018-10-12T12:05:05.546Z,25.00
2018-10-12T12:06:05.544Z,25.10
2018-10-12T12:07:05.584Z,25.14
2018-10-12T12:08:05.533Z,25.23
2018-10-12T12:09:05.528Z,25.27
2018-10-12T12:10:05.517Z,25.33
2018-10-12T12:11:05.516Z,25.42
2018-10-12T12:12:05.508Z,25.51
2018-10-12T12:13:05.505Z,25.60
2018-10-12T12:14:05.619Z,25.61
2018-10-12T12:15:05.497Z,25.62
2018-10-12T12:16:05.486Z,25.67
2018-10-12T12:17:05.480Z,25.73
2018-10-12T12:18:05.474Z,25.82
2018-10-12T12:19:05.481Z,25.95
2018-10-12T12:20:05.465Z,25.99
2018-10-12T12:21:05.455Z,26.26
2018-10-12T12:22:05.455Z,26.26
2018-10-12T12:23:05.447Z,26.36
2018-10-12T12:24:05.449Z,26.26
2018-10-12T12:25:05.437Z,26.32
2018-10-12T12:26:05.437Z,26.36
2018-10-12T12:27:05.430Z,26.40
2018-10-12T12:28:05.431Z,26.37
2018-10-12T12:29:05.422Z,26.50
2018-10-12T12:30:05.412Z,26.54
2018-10-12T12:31:05.406Z,26.57
2018-10-12T12:32:05.416Z,26.52
2018-10-12T12:33:05.400Z,26.63
2018-10-12T12:34:05.399Z,26.57
2018-10-12T12:35:05.569Z,26.73
2018-10-12T12:36:05.522Z,26.81
2018-10-12T12:37:05.381Z,26.95
2018-10-12T12:38:05.381Z,27.02
2018-10-12T12:39:05.368Z,27.13
2018-10-12T12:40:05.366Z,27.19
2018-10-12T12:41:05.358Z,27.31
2018-10-12T12:42:05.380Z,27.19
2018-10-12T12:43:05.349Z,27.28
2018-10-12T12:44:05.347Z,27.43
2018-10-12T12:45:05.345Z,27.50
2018-10-12T12:46:05.339Z,27.41
2018-10-12T12:47:05.355Z,27.44
2018-10-12T12:48:05.461Z,27.47
2018-10-12T12:49:05.753Z,27.50
2018-10-12T12:50:05.325Z,27.47
2018-10-12T12:51:05.322Z,27.63
2018-10-12T12:52:05.320Z,27.46